sensor_id;sensor_type;location;lat;lon;timestamp;temperature;humidity
69387;SHT31;56575;48.942;8.404;2023-04-24T00:00:34;12.36;77.40
69387;SHT31;56575;48.942;8.404;2023-04-24T00:02:59;12.38;77.79
69387;SHT31;56575;48.942;8.404;2023-04-24T00:05:25;12.40;78.25
69387;SHT31;56575;48.942;8.404;2023-04-24T00:07:50;12.37;78.08
69387;SHT31;56575;48.942;8.404;2023-04-24T00:10:18;12.37;77.85
69387;SHT31;56575;48.942;8.404;2023-04-24T00:12:44;12.41;77.12
69387;SHT31;56575;48.942;8.404;2023-04-24T00:15:10;12.50;77.43
69387;SHT31;56575;48.942;8.404;2023-04-24T00:17:35;12.51;76.43
69387;SHT31;56575;48.942;8.404;2023-04-24T00:20:01;12.54;77.36
69387;SHT31;56575;48.942;8.404;2023-04-24T00:22:30;12.58;77.56
69387;SHT31;56575;48.942;8.404;2023-04-24T00:24:56;12.61;76.58
69387;SHT31;56575;48.942;8.404;2023-04-24T00:27:22;12.62;76.42
69387;SHT31;56575;48.942;8.404;2023-04-24T00:29:47;12.64;76.73
69387;SHT31;56575;48.942;8.404;2023-04-24T00:32:13;12.65;76.98
69387;SHT31;56575;48.942;8.404;2023-04-24T00:34:39;12.65;77.07
69387;SHT31;56575;48.942;8.404;2023-04-24T00:37:04;12.64;76.31
69387;SHT31;56575;48.942;8.404;2023-04-24T00:39:30;12.65;76.50
69387;SHT31;56575;48.942;8.404;2023-04-24T00:41:56;12.69;75.93
69387;SHT31;56575;48.942;8.404;2023-04-24T00:44:22;12.74;76.07
69387;SHT31;56575;48.942;8.404;2023-04-24T00:46:48;12.74;75.47
69387;SHT31;56575;48.942;8.404;2023-04-24T00:49:18;12.76;75.78
69387;SHT31;56575;48.942;8.404;2023-04-24T00:51:44;12.81;75.06
69387;SHT31;56575;48.942;8.404;2023-04-24T00:54:13;12.84;75.92
69387;SHT31;56575;48.942;8.404;2023-04-24T00:56:39;12.82;76.47
69387;SHT31;56575;48.942;8.404;2023-04-24T00:59:05;12.79;75.85
69387;SHT31;56575;48.942;8.404;2023-04-24T01:01:31;12.75;75.61
69387;SHT31;56575;48.942;8.404;2023-04-24T01:03:57;12.75;75.51
69387;SHT31;56575;48.942;8.404;2023-04-24T01:06:23;12.72;75.92
69387;SHT31;56575;48.942;8.404;2023-04-24T01:08:52;12.74;75.85
69387;SHT31;56575;48.942;8.404;2023-04-24T01:11:18;12.72;76.13
69387;SHT31;56575;48.942;8.404;2023-04-24T01:13:43;12.65;75.98
69387;SHT31;56575;48.942;8.404;2023-04-24T01:16:08;12.68;76.06
69387;SHT31;56575;48.942;8.404;2023-04-24T01:18:34;12.65;76.04
69387;SHT31;56575;48.942;8.404;2023-04-24T01:21:02;12.68;76.37
69387;SHT31;56575;48.942;8.404;2023-04-24T01:23:28;12.68;76.44
69387;SHT31;56575;48.942;8.404;2023-04-24T01:25:54;12.65;76.24
69387;SHT31;56575;48.942;8.404;2023-04-24T01:28:20;12.69;76.19
69387;SHT31;56575;48.942;8.404;2023-04-24T01:30:46;12.69;75.73
69387;SHT31;56575;48.942;8.404;2023-04-24T01:33:12;12.71;76.24
69387;SHT31;56575;48.942;8.404;2023-04-24T01:35:38;12.68;75.86
69387;SHT31;56575;48.942;8.404;2023-04-24T01:38:04;12.74;76.31
69387;SHT31;56575;48.942;8.404;2023-04-24T01:40:30;12.69;76.02
69387;SHT31;56575;48.942;8.404;2023-04-24T01:42:57;12.71;77.15
69387;SHT31;56575;48.942;8.404;2023-04-24T01:45:23;12.65;77.96
69387;SHT31;56575;48.942;8.404;2023-04-24T01:47:49;12.65;77.45
69387;SHT31;56575;48.942;8.404;2023-04-24T01:50:15;12.64;77.46
69387;SHT31;56575;48.942;8.404;2023-04-24T01:52:40;12.62;77.16
69387;SHT31;56575;48.942;8.404;2023-04-24T01:55:06;12.65;77.11
69387;SHT31;56575;48.942;8.404;2023-04-24T01:57:33;12.65;77.92
69387;SHT31;56575;48.942;8.404;2023-04-24T01:59:58;12.65;77.84
69387;SHT31;56575;48.942;8.404;2023-04-24T02:02:24;12.59;78.12
69387;SHT31;56575;48.942;8.404;2023-04-24T02:04:56;12.57;79.30
69387;SHT31;56575;48.942;8.404;2023-04-24T02:07:22;12.51;80.42
69387;SHT31;56575;48.942;8.404;2023-04-24T02:09:47;12.50;80.91
69387;SHT31;56575;48.942;8.404;2023-04-24T02:12:14;12.42;79.22
69387;SHT31;56575;48.942;8.404;2023-04-24T02:14:39;12.38;79.40
69387;SHT31;56575;48.942;8.404;2023-04-24T02:17:04;12.38;79.44
69387;SHT31;56575;48.942;8.404;2023-04-24T02:19:30;12.37;79.60
69387;SHT31;56575;48.942;8.404;2023-04-24T02:21:56;12.34;79.62
69387;SHT31;56575;48.942;8.404;2023-04-24T02:24:21;12.36;79.63
69387;SHT31;56575;48.942;8.404;2023-04-24T02:26:46;12.34;79.82
69387;SHT31;56575;48.942;8.404;2023-04-24T02:29:12;12.31;80.13
69387;SHT31;56575;48.942;8.404;2023-04-24T02:31:37;12.31;79.93
69387;SHT31;56575;48.942;8.404;2023-04-24T02:34:02;12.29;79.91
69387;SHT31;56575;48.942;8.404;2023-04-24T02:36:28;12.21;80.61
69387;SHT31;56575;48.942;8.404;2023-04-24T02:38:53;12.24;80.47
69387;SHT31;56575;48.942;8.404;2023-04-24T02:41:18;12.27;81.53
69387;SHT31;56575;48.942;8.404;2023-04-24T02:43:44;12.27;80.47
69387;SHT31;56575;48.942;8.404;2023-04-24T02:46:10;12.29;80.71
69387;SHT31;56575;48.942;8.404;2023-04-24T02:48:36;12.31;80.50
69387;SHT31;56575;48.942;8.404;2023-04-24T02:51:03;12.36;81.20
69387;SHT31;56575;48.942;8.404;2023-04-24T02:53:28;12.33;82.72
69387;SHT31;56575;48.942;8.404;2023-04-24T02:55:55;12.21;84.50
69387;SHT31;56575;48.942;8.404;2023-04-24T02:58:21;11.97;85.50
69387;SHT31;56575;48.942;8.404;2023-04-24T03:00:47;11.76;86.59
69387;SHT31;56575;48.942;8.404;2023-04-24T03:03:12;11.62;85.44
69387;SHT31;56575;48.942;8.404;2023-04-24T03:05:38;11.54;87.37
69387;SHT31;56575;48.942;8.404;2023-04-24T03:08:03;11.40;87.44
69387;SHT31;56575;48.942;8.404;2023-04-24T03:10:29;11.30;88.11
69387;SHT31;56575;48.942;8.404;2023-04-24T03:12:54;11.16;87.70
69387;SHT31;56575;48.942;8.404;2023-04-24T03:15:20;10.93;87.56
69387;SHT31;56575;48.942;8.404;2023-04-24T03:17:45;10.82;89.94
69387;SHT31;56575;48.942;8.404;2023-04-24T03:20:11;10.67;91.68
69387;SHT31;56575;48.942;8.404;2023-04-24T03:22:36;10.54;93.04
69387;SHT31;56575;48.942;8.404;2023-04-24T03:25:02;10.37;92.49
69387;SHT31;56575;48.942;8.404;2023-04-24T03:27:27;10.34;93.11
69387;SHT31;56575;48.942;8.404;2023-04-24T03:29:52;10.36;93.70
69387;SHT31;56575;48.942;8.404;2023-04-24T03:32:20;10.29;93.43
69387;SHT31;56575;48.942;8.404;2023-04-24T03:34:45;10.27;93.81
69387;SHT31;56575;48.942;8.404;2023-04-24T03:37:10;10.23;93.71
69387;SHT31;56575;48.942;8.404;2023-04-24T03:39:36;10.29;95.24
69387;SHT31;56575;48.942;8.404;2023-04-24T03:42:01;10.25;93.89
69387;SHT31;56575;48.942;8.404;2023-04-24T03:44:27;10.29;94.14
69387;SHT31;56575;48.942;8.404;2023-04-24T03:46:52;10.27;93.26
69387;SHT31;56575;48.942;8.404;2023-04-24T03:49:18;10.24;93.22
69387;SHT31;56575;48.942;8.404;2023-04-24T03:51:43;10.29;93.50
69387;SHT31;56575;48.942;8.404;2023-04-24T03:54:09;10.29;93.68
69387;SHT31;56575;48.942;8.404;2023-04-24T03:56:34;10.33;93.41
69387;SHT31;56575;48.942;8.404;2023-04-24T03:58:59;10.42;94.32
69387;SHT31;56575;48.942;8.404;2023-04-24T04:01:25;10.41;93.25
69387;SHT31;56575;48.942;8.404;2023-04-24T04:03:50;10.44;93.76
69387;SHT31;56575;48.942;8.404;2023-04-24T04:06:16;10.47;92.53
69387;SHT31;56575;48.942;8.404;2023-04-24T04:08:41;10.44;92.22
69387;SHT31;56575;48.942;8.404;2023-04-24T04:11:06;10.47;92.10
69387;SHT31;56575;48.942;8.404;2023-04-24T04:13:32;10.47;91.99
69387;SHT31;56575;48.942;8.404;2023-04-24T04:15:57;10.42;89.07
69387;SHT31;56575;48.942;8.404;2023-04-24T04:18:23;10.41;89.11
69387;SHT31;56575;48.942;8.404;2023-04-24T04:20:48;10.38;88.23
69387;SHT31;56575;48.942;8.404;2023-04-24T04:23:13;10.37;89.86
69387;SHT31;56575;48.942;8.404;2023-04-24T04:25:39;10.36;90.87
69387;SHT31;56575;48.942;8.404;2023-04-24T04:28:04;10.38;92.01
69387;SHT31;56575;48.942;8.404;2023-04-24T04:30:31;10.41;92.16
69387;SHT31;56575;48.942;8.404;2023-04-24T04:32:57;10.36;92.08
69387;SHT31;56575;48.942;8.404;2023-04-24T04:35:23;10.40;92.79
69387;SHT31;56575;48.942;8.404;2023-04-24T04:37:48;10.36;92.28
69387;SHT31;56575;48.942;8.404;2023-04-24T04:40:13;10.34;92.25
69387;SHT31;56575;48.942;8.404;2023-04-24T04:42:39;10.34;92.21
69387;SHT31;56575;48.942;8.404;2023-04-24T04:45:07;10.30;91.82
69387;SHT31;56575;48.942;8.404;2023-04-24T04:47:34;10.27;91.18
69387;SHT31;56575;48.942;8.404;2023-04-24T04:50:00;10.23;90.86
69387;SHT31;56575;48.942;8.404;2023-04-24T04:52:25;10.23;91.63
69387;SHT31;56575;48.942;8.404;2023-04-24T04:54:51;10.25;90.80
69387;SHT31;56575;48.942;8.404;2023-04-24T04:57:17;10.27;91.21
69387;SHT31;56575;48.942;8.404;2023-04-24T04:59:42;10.18;90.45
69387;SHT31;56575;48.942;8.404;2023-04-24T05:02:08;10.14;90.15
69387;SHT31;56575;48.942;8.404;2023-04-24T05:04:33;10.17;90.40
69387;SHT31;56575;48.942;8.404;2023-04-24T05:06:59;10.17;90.98
69387;SHT31;56575;48.942;8.404;2023-04-24T05:09:24;10.18;90.21
69387;SHT31;56575;48.942;8.404;2023-04-24T05:11:52;10.23;90.45
69387;SHT31;56575;48.942;8.404;2023-04-24T05:14:18;10.27;91.09
69387;SHT31;56575;48.942;8.404;2023-04-24T05:16:44;10.41;90.56
69387;SHT31;56575;48.942;8.404;2023-04-24T05:19:09;10.47;90.67
69387;SHT31;56575;48.942;8.404;2023-04-24T05:21:36;10.57;90.69
69387;SHT31;56575;48.942;8.404;2023-04-24T05:24:02;10.61;89.54
69387;SHT31;56575;48.942;8.404;2023-04-24T05:26:27;10.64;89.72
69387;SHT31;56575;48.942;8.404;2023-04-24T05:28:53;10.71;89.22
69387;SHT31;56575;48.942;8.404;2023-04-24T05:31:18;10.78;89.39
69387;SHT31;56575;48.942;8.404;2023-04-24T05:33:44;10.80;89.57
69387;SHT31;56575;48.942;8.404;2023-04-24T05:36:09;10.85;89.66
69387;SHT31;56575;48.942;8.404;2023-04-24T05:38:35;10.85;88.98
69387;SHT31;56575;48.942;8.404;2023-04-24T05:41:00;10.85;88.86
69387;SHT31;56575;48.942;8.404;2023-04-24T05:43:26;10.86;87.41
69387;SHT31;56575;48.942;8.404;2023-04-24T05:45:51;10.92;84.97
69387;SHT31;56575;48.942;8.404;2023-04-24T05:48:18;10.95;84.51
69387;SHT31;56575;48.942;8.404;2023-04-24T05:50:44;10.99;84.24
69387;SHT31;56575;48.942;8.404;2023-04-24T05:53:09;11.00;82.96
69387;SHT31;56575;48.942;8.404;2023-04-24T05:55:36;11.02;82.93
69387;SHT31;56575;48.942;8.404;2023-04-24T05:58:01;10.97;82.20
69387;SHT31;56575;48.942;8.404;2023-04-24T06:00:27;11.02;82.94
69387;SHT31;56575;48.942;8.404;2023-04-24T06:02:53;11.00;82.35
69387;SHT31;56575;48.942;8.404;2023-04-24T06:05:19;11.02;82.18
69387;SHT31;56575;48.942;8.404;2023-04-24T06:07:45;11.06;81.87
69387;SHT31;56575;48.942;8.404;2023-04-24T06:10:11;11.13;82.29
69387;SHT31;56575;48.942;8.404;2023-04-24T06:12:36;11.13;82.08
69387;SHT31;56575;48.942;8.404;2023-04-24T06:15:03;11.09;81.54
69387;SHT31;56575;48.942;8.404;2023-04-24T06:17:28;11.13;80.77
69387;SHT31;56575;48.942;8.404;2023-04-24T06:19:53;11.06;79.93
69387;SHT31;56575;48.942;8.404;2023-04-24T06:22:19;11.12;80.31
69387;SHT31;56575;48.942;8.404;2023-04-24T06:24:44;11.12;79.56
69387;SHT31;56575;48.942;8.404;2023-04-24T06:27:10;11.10;80.15
69387;SHT31;56575;48.942;8.404;2023-04-24T06:29:36;11.12;79.25
69387;SHT31;56575;48.942;8.404;2023-04-24T06:32:01;11.19;80.08
69387;SHT31;56575;48.942;8.404;2023-04-24T06:34:27;11.23;78.78
69387;SHT31;56575;48.942;8.404;2023-04-24T06:36:53;11.17;77.42
69387;SHT31;56575;48.942;8.404;2023-04-24T06:39:19;11.20;77.08
69387;SHT31;56575;48.942;8.404;2023-04-24T06:41:45;11.24;76.33
69387;SHT31;56575;48.942;8.404;2023-04-24T06:44:10;11.27;75.76
69387;SHT31;56575;48.942;8.404;2023-04-24T06:46:37;11.34;74.46
69387;SHT31;56575;48.942;8.404;2023-04-24T06:49:03;11.34;75.43
69387;SHT31;56575;48.942;8.404;2023-04-24T06:51:28;11.40;76.30
69387;SHT31;56575;48.942;8.404;2023-04-24T06:53:54;11.42;77.23
69387;SHT31;56575;48.942;8.404;2023-04-24T06:56:23;11.37;76.25
69387;SHT31;56575;48.942;8.404;2023-04-24T06:58:48;11.44;74.64
69387;SHT31;56575;48.942;8.404;2023-04-24T07:01:14;11.57;74.22
69387;SHT31;56575;48.942;8.404;2023-04-24T07:03:39;11.58;73.21
69387;SHT31;56575;48.942;8.404;2023-04-24T07:06:05;11.55;73.74
69387;SHT31;56575;48.942;8.404;2023-04-24T07:08:31;11.48;73.93
69387;SHT31;56575;48.942;8.404;2023-04-24T07:10:58;11.45;73.25
69387;SHT31;56575;48.942;8.404;2023-04-24T07:13:23;11.40;72.75
69387;SHT31;56575;48.942;8.404;2023-04-24T07:15:49;11.54;73.49
69387;SHT31;56575;48.942;8.404;2023-04-24T07:18:16;11.57;72.24
69387;SHT31;56575;48.942;8.404;2023-04-24T07:20:42;11.64;70.70
69387;SHT31;56575;48.942;8.404;2023-04-24T07:23:07;11.64;71.30
69387;SHT31;56575;48.942;8.404;2023-04-24T07:25:33;11.79;71.95
69387;SHT31;56575;48.942;8.404;2023-04-24T07:27:59;11.72;69.99
69387;SHT31;56575;48.942;8.404;2023-04-24T07:30:24;11.86;69.88
69387;SHT31;56575;48.942;8.404;2023-04-24T07:32:50;11.97;68.65
69387;SHT31;56575;48.942;8.404;2023-04-24T07:35:15;12.02;67.66
69387;SHT31;56575;48.942;8.404;2023-04-24T07:37:41;12.24;67.55
69387;SHT31;56575;48.942;8.404;2023-04-24T07:40:11;12.26;67.26
69387;SHT31;56575;48.942;8.404;2023-04-24T07:42:37;12.17;65.66
69387;SHT31;56575;48.942;8.404;2023-04-24T07:45:03;12.06;65.49
69387;SHT31;56575;48.942;8.404;2023-04-24T07:47:29;11.86;65.10
69387;SHT31;56575;48.942;8.404;2023-04-24T07:49:56;11.74;65.83
69387;SHT31;56575;48.942;8.404;2023-04-24T07:52:21;11.64;67.85
69387;SHT31;56575;48.942;8.404;2023-04-24T07:54:48;11.47;70.29
69387;SHT31;56575;48.942;8.404;2023-04-24T07:57:14;11.20;72.39
69387;SHT31;56575;48.942;8.404;2023-04-24T07:59:40;11.06;72.11
69387;SHT31;56575;48.942;8.404;2023-04-24T08:02:05;11.02;72.09
69387;SHT31;56575;48.942;8.404;2023-04-24T08:04:31;11.07;71.39
69387;SHT31;56575;48.942;8.404;2023-04-24T08:06:57;11.13;70.72
69387;SHT31;56575;48.942;8.404;2023-04-24T08:09:22;11.20;69.99
69387;SHT31;56575;48.942;8.404;2023-04-24T08:11:48;11.31;69.36
69387;SHT31;56575;48.942;8.404;2023-04-24T08:14:13;11.28;68.52
69387;SHT31;56575;48.942;8.404;2023-04-24T08:16:40;11.26;68.31
69387;SHT31;56575;48.942;8.404;2023-04-24T08:19:05;11.19;68.66
69387;SHT31;56575;48.942;8.404;2023-04-24T08:21:31;11.17;70.69
69387;SHT31;56575;48.942;8.404;2023-04-24T08:23:56;11.00;72.88
69387;SHT31;56575;48.942;8.404;2023-04-24T08:26:22;10.72;75.43
69387;SHT31;56575;48.942;8.404;2023-04-24T08:28:48;10.51;76.42
69387;SHT31;56575;48.942;8.404;2023-04-24T08:31:13;10.55;76.74
69387;SHT31;56575;48.942;8.404;2023-04-24T08:33:38;10.62;75.90
69387;SHT31;56575;48.942;8.404;2023-04-24T08:36:07;10.79;75.30
69387;SHT31;56575;48.942;8.404;2023-04-24T08:38:34;10.83;73.80
69387;SHT31;56575;48.942;8.404;2023-04-24T08:41:00;10.85;74.11
69387;SHT31;56575;48.942;8.404;2023-04-24T08:43:26;10.88;72.93
69387;SHT31;56575;48.942;8.404;2023-04-24T08:45:53;11.03;71.77
69387;SHT31;56575;48.942;8.404;2023-04-24T08:48:20;11.07;69.63
69387;SHT31;56575;48.942;8.404;2023-04-24T08:50:48;11.21;69.98
69387;SHT31;56575;48.942;8.404;2023-04-24T08:53:14;11.14;70.03
69387;SHT31;56575;48.942;8.404;2023-04-24T08:55:41;11.40;70.28
69387;SHT31;56575;48.942;8.404;2023-04-24T08:58:06;11.52;68.32
69387;SHT31;56575;48.942;8.404;2023-04-24T09:00:32;11.92;67.77
69387;SHT31;56575;48.942;8.404;2023-04-24T09:02:59;12.31;65.67
69387;SHT31;56575;48.942;8.404;2023-04-24T09:05:26;12.69;65.81
69387;SHT31;56575;48.942;8.404;2023-04-24T09:07:54;12.57;61.86
69387;SHT31;56575;48.942;8.404;2023-04-24T09:10:22;12.52;62.46
69387;SHT31;56575;48.942;8.404;2023-04-24T09:12:47;12.54;62.50
69387;SHT31;56575;48.942;8.404;2023-04-24T09:15:13;12.45;62.22
69387;SHT31;56575;48.942;8.404;2023-04-24T09:17:38;12.29;62.59
69387;SHT31;56575;48.942;8.404;2023-04-24T09:20:05;12.19;63.65
69387;SHT31;56575;48.942;8.404;2023-04-24T09:22:30;12.13;63.19
69387;SHT31;56575;48.942;8.404;2023-04-24T09:25:09;12.24;62.52
69387;SHT31;56575;48.942;8.404;2023-04-24T09:27:42;12.07;62.89
69387;SHT31;56575;48.942;8.404;2023-04-24T09:30:08;12.14;63.16
69387;SHT31;56575;48.942;8.404;2023-04-24T09:32:34;12.10;64.21
69387;SHT31;56575;48.942;8.404;2023-04-24T09:35:08;12.37;64.01
69387;SHT31;56575;48.942;8.404;2023-04-24T09:37:46;12.52;62.39
69387;SHT31;56575;48.942;8.404;2023-04-24T09:40:18;12.41;62.18
69387;SHT31;56575;48.942;8.404;2023-04-24T09:43:04;12.36;62.51
69387;SHT31;56575;48.942;8.404;2023-04-24T09:45:38;12.09;61.16
69387;SHT31;56575;48.942;8.404;2023-04-24T09:48:04;11.96;62.24
69387;SHT31;56575;48.942;8.404;2023-04-24T09:50:31;11.92;63.18
69387;SHT31;56575;48.942;8.404;2023-04-24T09:53:06;11.86;63.00
69387;SHT31;56575;48.942;8.404;2023-04-24T09:55:39;11.87;63.74
69387;SHT31;56575;48.942;8.404;2023-04-24T09:58:07;11.90;63.61
69387;SHT31;56575;48.942;8.404;2023-04-24T10:00:33;11.92;64.08
69387;SHT31;56575;48.942;8.404;2023-04-24T10:03:03;11.97;64.54
69387;SHT31;56575;48.942;8.404;2023-04-24T10:05:34;11.89;64.03
69387;SHT31;56575;48.942;8.404;2023-04-24T10:08:08;12.21;64.21
69387;SHT31;56575;48.942;8.404;2023-04-24T10:10:38;12.50;64.27
69387;SHT31;56575;48.942;8.404;2023-04-24T10:13:03;12.47;64.35
69387;SHT31;56575;48.942;8.404;2023-04-24T10:15:30;12.36;63.40
69387;SHT31;56575;48.942;8.404;2023-04-24T10:17:59;12.34;63.96
69387;SHT31;56575;48.942;8.404;2023-04-24T10:20:28;12.33;63.80
69387;SHT31;56575;48.942;8.404;2023-04-24T10:22:56;12.04;63.25
69387;SHT31;56575;48.942;8.404;2023-04-24T10:25:23;11.95;63.10
69387;SHT31;56575;48.942;8.404;2023-04-24T10:27:50;11.97;63.97
69387;SHT31;56575;48.942;8.404;2023-04-24T10:30:17;12.07;63.45
69387;SHT31;56575;48.942;8.404;2023-04-24T10:32:43;11.97;63.71
69387;SHT31;56575;48.942;8.404;2023-04-24T10:35:12;12.07;64.08
69387;SHT31;56575;48.942;8.404;2023-04-24T10:37:40;12.14;63.53
69387;SHT31;56575;48.942;8.404;2023-04-24T10:40:08;12.10;63.63
69387;SHT31;56575;48.942;8.404;2023-04-24T10:42:34;11.96;63.24
69387;SHT31;56575;48.942;8.404;2023-04-24T10:45:04;11.86;64.14
69387;SHT31;56575;48.942;8.404;2023-04-24T10:47:39;11.83;64.41
69387;SHT31;56575;48.942;8.404;2023-04-24T10:50:10;11.81;64.76
69387;SHT31;56575;48.942;8.404;2023-04-24T10:52:46;11.81;65.29
69387;SHT31;56575;48.942;8.404;2023-04-24T10:55:15;11.71;66.62
69387;SHT31;56575;48.942;8.404;2023-04-24T10:58:01;11.62;68.58
69387;SHT31;56575;48.942;8.404;2023-04-24T11:00:26;11.62;69.01
69387;SHT31;56575;48.942;8.404;2023-04-24T11:02:53;11.71;67.96
69387;SHT31;56575;48.942;8.404;2023-04-24T11:05:20;11.78;67.50
69387;SHT31;56575;48.942;8.404;2023-04-24T11:08:11;11.81;67.02
69387;SHT31;56575;48.942;8.404;2023-04-24T11:10:54;11.89;66.64
69387;SHT31;56575;48.942;8.404;2023-04-24T11:14:00;12.00;66.01
69387;SHT31;56575;48.942;8.404;2023-04-24T11:26:55;12.12;63.13
69387;SHT31;56575;48.942;8.404;2023-04-24T11:29:22;12.07;62.91
69387;SHT31;56575;48.942;8.404;2023-04-24T11:31:47;12.06;64.00
69387;SHT31;56575;48.942;8.404;2023-04-24T11:34:15;12.00;64.11
69387;SHT31;56575;48.942;8.404;2023-04-24T11:36:46;11.89;65.91
69387;SHT31;56575;48.942;8.404;2023-04-24T11:39:12;11.87;69.90
69387;SHT31;56575;48.942;8.404;2023-04-24T11:41:38;11.48;75.00
69387;SHT31;56575;48.942;8.404;2023-04-24T11:44:07;11.40;75.77
69387;SHT31;56575;48.942;8.404;2023-04-24T11:46:33;11.32;75.73
69387;SHT31;56575;48.942;8.404;2023-04-24T11:48:58;11.20;73.78
69387;SHT31;56575;48.942;8.404;2023-04-24T11:51:26;11.23;75.16
69387;SHT31;56575;48.942;8.404;2023-04-24T11:53:53;11.31;76.60
69387;SHT31;56575;48.942;8.404;2023-04-24T11:56:20;11.10;72.97
69387;SHT31;56575;48.942;8.404;2023-04-24T11:58:46;11.21;74.56
69387;SHT31;56575;48.942;8.404;2023-04-24T12:01:12;11.21;72.94
69387;SHT31;56575;48.942;8.404;2023-04-24T12:03:37;11.23;74.77
69387;SHT31;56575;48.942;8.404;2023-04-24T12:06:07;11.21;75.19
69387;SHT31;56575;48.942;8.404;2023-04-24T12:08:33;11.50;75.83
69387;SHT31;56575;48.942;8.404;2023-04-24T12:11:00;11.78;74.45
69387;SHT31;56575;48.942;8.404;2023-04-24T12:13:26;12.44;72.58
69387;SHT31;56575;48.942;8.404;2023-04-24T12:15:52;13.20;70.27
69387;SHT31;56575;48.942;8.404;2023-04-24T12:18:17;13.78;67.08
69387;SHT31;56575;48.942;8.404;2023-04-24T12:20:43;14.17;64.02
69387;SHT31;56575;48.942;8.404;2023-04-24T12:23:09;13.23;63.85
69387;SHT31;56575;48.942;8.404;2023-04-24T12:25:35;12.64;64.15
69387;SHT31;56575;48.942;8.404;2023-04-24T12:30:30;12.45;66.31
69387;SHT31;56575;48.942;8.404;2023-04-24T12:32:57;12.71;66.26
69387;SHT31;56575;48.942;8.404;2023-04-24T12:35:25;13.99;61.16
69387;SHT31;56575;48.942;8.404;2023-04-24T12:37:51;14.23;59.09
69387;SHT31;56575;48.942;8.404;2023-04-24T12:40:17;14.09;59.78
69387;SHT31;56575;48.942;8.404;2023-04-24T12:42:45;14.13;60.39
69387;SHT31;56575;48.942;8.404;2023-04-24T12:45:11;14.19;59.31
69387;SHT31;56575;48.942;8.404;2023-04-24T12:47:41;14.74;58.62
69387;SHT31;56575;48.942;8.404;2023-04-24T12:50:11;14.85;58.48
69387;SHT31;56575;48.942;8.404;2023-04-24T12:52:37;15.30;57.01
69387;SHT31;56575;48.942;8.404;2023-04-24T12:55:03;15.31;57.05
69387;SHT31;56575;48.942;8.404;2023-04-24T12:57:30;15.31;57.91
69387;SHT31;56575;48.942;8.404;2023-04-24T12:59:56;15.24;56.20
69387;SHT31;56575;48.942;8.404;2023-04-24T13:02:23;15.36;56.66
69387;SHT31;56575;48.942;8.404;2023-04-24T13:04:49;14.89;57.65
69387;SHT31;56575;48.942;8.404;2023-04-24T13:07:14;14.63;58.20
69387;SHT31;56575;48.942;8.404;2023-04-24T13:09:41;14.05;59.65
69387;SHT31;56575;48.942;8.404;2023-04-24T13:12:07;13.68;60.19
69387;SHT31;56575;48.942;8.404;2023-04-24T13:14:33;13.44;62.37
69387;SHT31;56575;48.942;8.404;2023-04-24T13:16:58;13.71;62.60
69387;SHT31;56575;48.942;8.404;2023-04-24T13:19:25;13.59;60.41
69387;SHT31;56575;48.942;8.404;2023-04-24T13:21:51;13.55;60.86
69387;SHT31;56575;48.942;8.404;2023-04-24T13:24:18;13.87;61.40
69387;SHT31;56575;48.942;8.404;2023-04-24T13:26:43;14.14;60.81
69387;SHT31;56575;48.942;8.404;2023-04-24T13:29:09;14.34;58.65
69387;SHT31;56575;48.942;8.404;2023-04-24T13:31:35;14.63;59.15
69387;SHT31;56575;48.942;8.404;2023-04-24T13:34:02;14.30;59.00
69387;SHT31;56575;48.942;8.404;2023-04-24T13:36:27;14.41;58.94
69387;SHT31;56575;48.942;8.404;2023-04-24T13:38:53;14.58;59.02
69387;SHT31;56575;48.942;8.404;2023-04-24T13:41:18;14.65;58.94
69387;SHT31;56575;48.942;8.404;2023-04-24T13:43:43;15.18;57.92
69387;SHT31;56575;48.942;8.404;2023-04-24T13:46:09;15.48;55.61
69387;SHT31;56575;48.942;8.404;2023-04-24T13:48:34;16.10;54.28
69387;SHT31;56575;48.942;8.404;2023-04-24T13:51:00;16.02;52.96
69387;SHT31;56575;48.942;8.404;2023-04-24T13:53:25;15.98;52.75
69387;SHT31;56575;48.942;8.404;2023-04-24T13:55:51;15.88;52.51
69387;SHT31;56575;48.942;8.404;2023-04-24T13:58:16;15.65;53.51
69387;SHT31;56575;48.942;8.404;2023-04-24T14:00:41;15.57;54.06
69387;SHT31;56575;48.942;8.404;2023-04-24T14:03:07;15.26;54.27
69387;SHT31;56575;48.942;8.404;2023-04-24T14:05:32;14.85;55.81
69387;SHT31;56575;48.942;8.404;2023-04-24T14:07:58;14.92;56.58
69387;SHT31;56575;48.942;8.404;2023-04-24T14:10:23;14.42;55.79
69387;SHT31;56575;48.942;8.404;2023-04-24T14:12:48;14.24;56.51
69387;SHT31;56575;48.942;8.404;2023-04-24T14:15:14;14.20;59.85
69387;SHT31;56575;48.942;8.404;2023-04-24T14:17:40;14.27;58.43
69387;SHT31;56575;48.942;8.404;2023-04-24T14:20:05;14.48;58.65
69387;SHT31;56575;48.942;8.404;2023-04-24T14:22:32;14.60;58.26
69387;SHT31;56575;48.942;8.404;2023-04-24T14:24:57;14.42;57.57
69387;SHT31;56575;48.942;8.404;2023-04-24T14:27:24;14.50;56.92
69387;SHT31;56575;48.942;8.404;2023-04-24T14:29:49;14.88;56.90
69387;SHT31;56575;48.942;8.404;2023-04-24T14:32:15;14.98;56.13
69387;SHT31;56575;48.942;8.404;2023-04-24T14:34:40;14.81;55.79
69387;SHT31;56575;48.942;8.404;2023-04-24T14:37:07;14.82;56.58
69387;SHT31;56575;48.942;8.404;2023-04-24T14:39:32;14.50;56.77
69387;SHT31;56575;48.942;8.404;2023-04-24T14:41:57;14.10;57.15
69387;SHT31;56575;48.942;8.404;2023-04-24T14:44:23;14.02;58.79
69387;SHT31;56575;48.942;8.404;2023-04-24T14:46:48;14.01;59.66
69387;SHT31;56575;48.942;8.404;2023-04-24T14:49:14;14.01;59.70
69387;SHT31;56575;48.942;8.404;2023-04-24T14:51:40;13.96;59.80
69387;SHT31;56575;48.942;8.404;2023-04-24T14:54:06;13.93;60.31
69387;SHT31;56575;48.942;8.404;2023-04-24T14:56:32;13.79;60.81
69387;SHT31;56575;48.942;8.404;2023-04-24T14:58:57;13.64;61.88
69387;SHT31;56575;48.942;8.404;2023-04-24T15:01:23;13.47;62.94
69387;SHT31;56575;48.942;8.404;2023-04-24T15:03:49;13.40;63.06
69387;SHT31;56575;48.942;8.404;2023-04-24T15:06:15;13.50;63.34
69387;SHT31;56575;48.942;8.404;2023-04-24T15:08:40;13.54;63.22
69387;SHT31;56575;48.942;8.404;2023-04-24T15:11:06;13.74;62.64
69387;SHT31;56575;48.942;8.404;2023-04-24T15:13:31;13.78;62.18
69387;SHT31;56575;48.942;8.404;2023-04-24T15:15:57;13.86;61.24
69387;SHT31;56575;48.942;8.404;2023-04-24T15:18:22;13.86;59.42
69387;SHT31;56575;48.942;8.404;2023-04-24T15:20:48;13.79;59.94
69387;SHT31;56575;48.942;8.404;2023-04-24T15:23:13;13.67;60.55
69387;SHT31;56575;48.942;8.404;2023-04-24T15:25:39;13.57;60.36
69387;SHT31;56575;48.942;8.404;2023-04-24T15:28:04;13.69;60.38
69387;SHT31;56575;48.942;8.404;2023-04-24T15:30:30;13.89;60.87
69387;SHT31;56575;48.942;8.404;2023-04-24T15:32:56;13.95;60.22
69387;SHT31;56575;48.942;8.404;2023-04-24T15:35:21;13.75;59.39
69387;SHT31;56575;48.942;8.404;2023-04-24T15:37:47;13.59;60.38